KLRF/LRF METAR and TAF weather

Enter ICAO airport designator
Station Type Date Time Source
KLRF METAR 2019/04/22 17:56 UTC NOAA

KLRF 221756Z AUTO 16003KT 9SM CLR 25/13 A3011 RMK AO2 SLP197 T02470133 10247 20111 $


Station Type Date Time Source
KLRF Decoded METAR 2019/04/22 17:56 UTC NOAA

Little Rock Air Force Base, AR, United States (KLRF) 34-55N 092-09W
Apr 22, 2019 - 01:56 PM EDT / 2019.04.22 1756 UTC
Wind: from the SSE (160 degrees) at 3 MPH (3 KT):0
Visibility: 9 mile(s):0
Sky conditions: clear
Temperature: 76.5 F (24.7 C)
Dew Point: 55.9 F (13.3 C)
Relative Humidity: 49%
Pressure (altimeter): 30.11 in. Hg (1019 hPa)
ob: KLRF 221756Z AUTO 16003KT 9SM CLR 25/13 A3011 RMK AO2 SLP197 T02470133 10247 20111
cycle: 18

Station Type Date Time Source
KLRF TAF 2019/04/22 15:09 UTC NOAA

TAF TAF KLRF 221500Z 2215/2321 20012KT 9999 SCT180 QNH3010INS
BECMG 2222/2223 18009KT 9999 SCT150 BKN200 QNH3006INS
BECMG 2315/2316 21010G15KT 9999 SCT050 BKN140 QNH3009INS TX28/2221Z TN13/2215Z

Example: see airport list